createdAt,value
2019-05-18T00:00:21.607Z,0
2019-05-18T00:01:22.180Z,0
2019-05-18T00:02:22.746Z,0
2019-05-18T00:03:23.317Z,0
2019-05-18T00:04:23.887Z,0
2019-05-18T00:05:24.458Z,0
2019-05-18T00:06:25.028Z,0
2019-05-18T00:07:25.597Z,0
2019-05-18T00:08:26.167Z,0
2019-05-18T00:09:26.736Z,0
2019-05-18T00:10:27.305Z,0
2019-05-18T00:11:27.882Z,0
2019-05-18T00:12:28.493Z,0
2019-05-18T00:13:29.063Z,0
2019-05-18T00:14:29.633Z,0
2019-05-18T00:15:30.203Z,0
2019-05-18T00:16:30.775Z,0
2019-05-18T00:17:31.346Z,0
2019-05-18T00:18:31.918Z,0
2019-05-18T00:19:32.489Z,0
2019-05-18T00:20:33.058Z,0
2019-05-18T00:21:33.628Z,0
2019-05-18T00:22:34.200Z,0
2019-05-18T00:23:34.771Z,0
2019-05-18T00:24:35.348Z,0
2019-05-18T00:25:35.912Z,0
2019-05-18T00:26:36.509Z,0
2019-05-18T00:27:37.090Z,0
2019-05-18T00:28:37.661Z,0
2019-05-18T00:29:38.231Z,0
2019-05-18T00:30:38.805Z,0
2019-05-18T00:31:39.375Z,0
2019-05-18T00:32:40.026Z,0
2019-05-18T00:33:40.560Z,0
2019-05-18T00:34:41.169Z,0
2019-05-18T00:35:41.741Z,0
2019-05-18T00:36:42.363Z,0
2019-05-18T00:37:42.924Z,0
2019-05-18T00:38:43.493Z,0
2019-05-18T00:39:44.107Z,0
2019-05-18T00:40:44.678Z,0
2019-05-18T00:41:45.625Z,0
2019-05-18T00:42:45.862Z,0
2019-05-18T00:43:46.432Z,0
2019-05-18T00:44:47.002Z,0
2019-05-18T00:45:47.573Z,0
2019-05-18T00:46:48.162Z,0
2019-05-18T00:47:48.724Z,0
2019-05-18T00:48:49.288Z,0
2019-05-18T00:49:49.858Z,0
2019-05-18T00:50:50.436Z,0
2019-05-18T00:51:51.044Z,0
2019-05-18T00:52:51.613Z,0
2019-05-18T00:53:52.186Z,0
2019-05-18T00:54:52.757Z,0
2019-05-18T00:55:53.326Z,0
2019-05-18T00:56:53.898Z,0
2019-05-18T00:57:54.511Z,0
2019-05-18T00:58:55.084Z,0
2019-05-18T00:59:55.653Z,0
2019-05-18T01:00:56.223Z,0
2019-05-18T01:01:56.797Z,0
2019-05-18T01:02:57.366Z,0
2019-05-18T01:03:57.934Z,0
2019-05-18T01:04:58.503Z,0
2019-05-18T01:05:59.072Z,0
2019-05-18T01:06:59.641Z,0
2019-05-18T01:08:00.212Z,0
2019-05-18T01:09:00.780Z,0
2019-05-18T01:10:01.349Z,0
2019-05-18T01:11:01.922Z,0
2019-05-18T01:12:02.491Z,0
2019-05-18T01:13:03.061Z,0
2019-05-18T01:14:03.636Z,0
2019-05-18T01:15:04.248Z,0
2019-05-18T01:16:04.818Z,0
2019-05-18T01:17:05.390Z,0
2019-05-18T01:18:05.962Z,0
2019-05-18T01:19:06.530Z,0
2019-05-18T01:20:07.109Z,0
2019-05-18T01:21:07.713Z,0
2019-05-18T01:22:08.287Z,0
2019-05-18T01:23:08.898Z,0
2019-05-18T01:24:09.468Z,0
2019-05-18T01:25:10.039Z,0
2019-05-18T01:26:10.607Z,0
2019-05-18T01:27:11.176Z,0
2019-05-18T01:28:11.751Z,0
2019-05-18T01:29:12.319Z,0
2019-05-18T01:30:12.885Z,0
2019-05-18T01:31:13.459Z,0
2019-05-18T01:32:14.045Z,0
2019-05-18T01:33:14.648Z,0
2019-05-18T01:34:15.217Z,0
2019-05-18T01:35:15.788Z,0
2019-05-18T01:36:16.358Z,0
2019-05-18T01:37:16.929Z,0
2019-05-18T01:38:17.498Z,0
2019-05-18T01:39:18.070Z,0
2019-05-18T01:40:18.640Z,0
2019-05-18T01:41:19.251Z,0
2019-05-18T01:42:19.825Z,0
2019-05-18T01:43:20.394Z,0
2019-05-18T01:44:20.963Z,0
2019-05-18T01:45:21.534Z,0
2019-05-18T01:46:22.105Z,0
2019-05-18T01:47:22.671Z,0
2019-05-18T01:48:23.290Z,0
2019-05-18T01:49:23.856Z,0
2019-05-18T01:50:24.426Z,0
2019-05-18T01:51:24.998Z,0
2019-05-18T01:52:25.569Z,0
2019-05-18T01:53:26.138Z,0
2019-05-18T01:54:26.710Z,0
2019-05-18T01:55:27.280Z,0
2019-05-18T01:56:27.850Z,0
2019-05-18T01:57:28.448Z,0
2019-05-18T01:58:28.992Z,0
2019-05-18T01:59:29.564Z,0
2019-05-18T02:00:30.132Z,0
2019-05-18T02:01:30.702Z,0
2019-05-18T02:02:31.272Z,0
2019-05-18T02:03:31.843Z,0
2019-05-18T02:04:32.414Z,0
2019-05-18T02:05:32.985Z,0
2019-05-18T02:06:33.553Z,0
2019-05-18T02:07:34.121Z,0
2019-05-18T02:08:34.695Z,0
2019-05-18T02:09:35.266Z,0
2019-05-18T02:10:35.845Z,0
2019-05-18T02:11:36.450Z,0
2019-05-18T02:12:37.020Z,0
2019-05-18T02:13:37.591Z,0
2019-05-18T02:14:38.162Z,0
2019-05-18T02:15:38.732Z,0
2019-05-18T02:16:39.304Z,0
2019-05-18T02:17:39.874Z,0
2019-05-18T02:18:40.443Z,0
2019-05-18T02:19:41.014Z,0
2019-05-18T02:20:41.602Z,0
2019-05-18T02:21:42.195Z,0
2019-05-18T02:22:42.769Z,0
2019-05-18T02:23:43.337Z,0
2019-05-18T02:24:43.907Z,0
2019-05-18T02:25:44.520Z,0
2019-05-18T02:26:45.089Z,0
2019-05-18T02:27:45.661Z,0
2019-05-18T02:28:46.272Z,0
2019-05-18T02:29:46.844Z,0
2019-05-18T02:30:47.414Z,0
2019-05-18T02:31:47.987Z,0
2019-05-18T02:32:48.608Z,0
2019-05-18T02:33:49.212Z,0
2019-05-18T02:34:49.782Z,0
2019-05-18T02:35:50.353Z,0
2019-05-18T02:36:50.924Z,0
2019-05-18T02:37:51.496Z,0
2019-05-18T02:38:52.067Z,0
2019-05-18T02:39:52.675Z,0
2019-05-18T02:40:53.245Z,0
2019-05-18T02:41:53.838Z,0
2019-05-18T02:42:54.385Z,0
2019-05-18T02:43:54.957Z,0
2019-05-18T02:44:55.523Z,0
2019-05-18T02:45:56.106Z,0
2019-05-18T02:46:56.663Z,0
2019-05-18T02:47:57.233Z,0
2019-05-18T02:48:57.829Z,0
2019-05-18T02:49:58.407Z,0
2019-05-18T02:50:58.970Z,0
2019-05-18T02:51:59.540Z,0
2019-05-18T02:53:00.114Z,0
2019-05-18T02:54:00.679Z,0
2019-05-18T02:55:01.273Z,0
2019-05-18T02:56:01.826Z,0
2019-05-18T02:57:02.437Z,0
2019-05-18T02:58:03.006Z,0
2019-05-18T02:59:03.577Z,0
2019-05-18T03:00:04.147Z,0
2019-05-18T03:01:04.715Z,0
2019-05-18T03:02:05.287Z,0
2019-05-18T03:03:05.858Z,0
2019-05-18T03:04:06.430Z,0
2019-05-18T03:05:07.002Z,0
2019-05-18T03:06:07.576Z,0
2019-05-18T03:07:08.184Z,0
2019-05-18T03:08:08.796Z,0
2019-05-18T03:09:09.365Z,0
2019-05-18T03:10:09.938Z,0
2019-05-18T03:11:10.507Z,0
2019-05-18T03:12:11.077Z,0
2019-05-18T03:13:11.648Z,0
2019-05-18T03:14:12.218Z,0
2019-05-18T03:15:12.788Z,0
2019-05-18T03:16:13.366Z,0
2019-05-18T03:17:13.979Z,0
2019-05-18T03:18:14.590Z,0
2019-05-18T03:19:15.157Z,0
2019-05-18T03:20:15.733Z,0
2019-05-18T03:21:16.296Z,0
2019-05-18T03:22:16.872Z,0
2019-05-18T03:23:17.438Z,0
2019-05-18T03:24:18.009Z,0
2019-05-18T03:25:18.579Z,0
2019-05-18T03:26:19.148Z,0
2019-05-18T03:27:19.725Z,0
2019-05-18T03:28:20.290Z,0
2019-05-18T03:29:20.900Z,0
2019-05-18T03:30:21.490Z,0
2019-05-18T03:31:22.225Z,0
2019-05-18T03:32:22.762Z,0
2019-05-18T03:33:29.007Z,0
2019-05-18T03:34:24.905Z,0
2019-05-18T03:35:25.457Z,0
2019-05-18T03:36:26.063Z,0
2019-05-18T03:37:26.673Z,0
2019-05-18T03:38:27.244Z,0
2019-05-18T03:39:27.811Z,0
2019-05-18T03:40:28.386Z,0
2019-05-18T03:41:28.956Z,0
2019-05-18T03:42:29.522Z,0
2019-05-18T03:43:30.093Z,0
2019-05-18T03:44:30.663Z,0
2019-05-18T03:45:31.234Z,0
2019-05-18T03:46:31.806Z,0
2019-05-18T03:47:32.376Z,0
2019-05-18T03:48:32.945Z,0
2019-05-18T03:49:33.515Z,0
2019-05-18T03:50:34.085Z,0
2019-05-18T03:51:34.653Z,0
2019-05-18T03:52:35.226Z,0
2019-05-18T03:53:35.838Z,0
2019-05-18T03:54:36.410Z,0
2019-05-18T03:55:36.987Z,0
2019-05-18T03:56:37.591Z,0
2019-05-18T03:57:38.162Z,0
2019-05-18T03:58:38.733Z,0
2019-05-18T03:59:39.302Z,0
2019-05-18T04:00:39.873Z,0
2019-05-18T04:01:40.452Z,0
2019-05-18T04:02:41.011Z,0
2019-05-18T04:03:41.586Z,0
2019-05-18T04:04:42.199Z,0
2019-05-18T04:05:42.767Z,0
2019-05-18T04:06:43.337Z,0
2019-05-18T04:07:43.908Z,0
2019-05-18T04:08:44.480Z,0
2019-05-18T04:09:45.048Z,0
2019-05-18T04:10:45.616Z,0
2019-05-18T04:11:46.190Z,0
2019-05-18T04:12:46.757Z,0
2019-05-18T04:13:47.326Z,0
2019-05-18T04:14:47.919Z,0
2019-05-18T04:15:48.510Z,0
2019-05-18T04:16:49.079Z,0
2019-05-18T04:17:49.651Z,0
2019-05-18T04:18:50.231Z,0
2019-05-18T04:19:50.833Z,0
2019-05-18T04:20:51.406Z,0
2019-05-18T04:21:52.014Z,0
2019-05-18T04:22:52.583Z,0
2019-05-18T04:23:53.153Z,0
2019-05-18T04:24:53.725Z,0
2019-05-18T04:25:54.299Z,0
2019-05-18T04:26:54.863Z,0
2019-05-18T04:27:55.441Z,0
2019-05-18T04:28:56.002Z,0
2019-05-18T04:29:56.573Z,0
2019-05-18T04:30:57.143Z,0
2019-05-18T04:31:57.713Z,0
2019-05-18T04:32:58.287Z,0
2019-05-18T04:33:58.896Z,0
2019-05-18T04:34:59.465Z,0
2019-05-18T04:36:00.034Z,0
2019-05-18T04:37:00.606Z,0
2019-05-18T04:38:01.180Z,0
2019-05-18T04:39:01.779Z,0
2019-05-18T04:40:02.318Z,0
2019-05-18T04:41:02.887Z,0
2019-05-18T04:42:03.460Z,0
2019-05-18T04:43:04.028Z,0
2019-05-18T04:44:04.598Z,0
2019-05-18T04:45:05.173Z,0
2019-05-18T04:46:05.784Z,0
2019-05-18T04:47:06.354Z,0
2019-05-18T04:48:06.923Z,0
2019-05-18T04:49:07.496Z,0
2019-05-18T04:50:08.117Z,0
2019-05-18T04:51:08.677Z,0
2019-05-18T04:52:09.251Z,0
2019-05-18T04:53:09.865Z,0
2019-05-18T04:54:10.431Z,0
2019-05-18T04:55:11.004Z,0
2019-05-18T04:56:11.571Z,0
2019-05-18T04:57:12.146Z,0
2019-05-18T04:58:12.755Z,0
2019-05-18T04:59:13.327Z,0
2019-05-18T05:00:13.894Z,0
2019-05-18T05:01:14.464Z,0
2019-05-18T05:02:15.058Z,0
2019-05-18T05:03:15.606Z,0
2019-05-18T05:04:16.176Z,0
2019-05-18T05:05:16.745Z,0
2019-05-18T05:06:17.315Z,0
2019-05-18T05:07:17.885Z,0
2019-05-18T05:08:18.454Z,0
2019-05-18T05:09:19.062Z,0
2019-05-18T05:10:19.640Z,0
2019-05-18T05:11:20.207Z,0
2019-05-18T05:12:20.780Z,0
2019-05-18T05:13:21.393Z,0
2019-05-18T05:14:21.964Z,0
2019-05-18T05:15:22.577Z,0
2019-05-18T05:16:23.156Z,0
2019-05-18T05:17:23.764Z,0
2019-05-18T05:18:24.329Z,0
2019-05-18T05:19:24.899Z,0
2019-05-18T05:20:25.468Z,0
2019-05-18T05:21:26.038Z,0
2019-05-18T05:22:26.616Z,0
2019-05-18T05:23:27.230Z,0
2019-05-18T05:24:27.793Z,0
2019-05-18T05:25:28.363Z,0
2019-05-18T05:26:28.934Z,0
2019-05-18T05:27:29.504Z,0
2019-05-18T05:28:30.082Z,0
2019-05-18T05:29:30.690Z,0
2019-05-18T05:31:46.681Z,0
2019-05-18T05:32:47.251Z,0
2019-05-18T05:33:47.822Z,0
2019-05-18T05:34:48.391Z,0
2019-05-18T05:35:48.960Z,0
2019-05-18T05:36:49.529Z,0
2019-05-18T05:37:50.099Z,0
2019-05-18T05:38:50.672Z,0
2019-05-18T05:39:51.285Z,0
2019-05-18T05:40:51.851Z,0
2019-05-18T05:41:52.419Z,0
2019-05-18T05:42:52.996Z,0
2019-05-18T05:43:53.603Z,0
2019-05-18T05:44:54.171Z,0
2019-05-18T05:45:54.741Z,0
2019-05-18T05:46:55.310Z,0
2019-05-18T05:47:55.882Z,0
2019-05-18T05:48:56.451Z,0
2019-05-18T05:49:57.027Z,0
2019-05-18T05:50:57.633Z,0
2019-05-18T05:51:58.206Z,0
2019-05-18T05:52:58.771Z,0
2019-05-18T05:53:59.341Z,0
2019-05-18T05:54:59.912Z,0
2019-05-18T05:56:00.486Z,0
2019-05-18T05:57:01.051Z,0
2019-05-18T05:58:01.625Z,0
2019-05-18T05:59:02.197Z,0
2019-05-18T06:00:02.805Z,0
2019-05-18T06:01:03.377Z,0
2019-05-18T06:02:03.999Z,0
2019-05-18T06:03:04.601Z,0
2019-05-18T06:04:05.171Z,0
2019-05-18T06:05:05.739Z,0
2019-05-18T06:06:06.309Z,0
2019-05-18T06:07:06.903Z,0
2019-05-18T06:08:07.458Z,0
2019-05-18T06:09:08.063Z,0
2019-05-18T06:10:08.634Z,0
2019-05-18T06:11:09.203Z,0
2019-05-18T06:12:09.772Z,0
2019-05-18T06:13:10.341Z,0
2019-05-18T06:14:10.911Z,0
2019-05-18T06:15:11.481Z,0
2019-05-18T06:16:12.050Z,0
2019-05-18T06:17:12.619Z,0
2019-05-18T06:18:13.192Z,0
2019-05-18T06:19:13.799Z,0
2019-05-18T06:20:14.375Z,0
2019-05-18T06:21:14.945Z,0
2019-05-18T06:22:15.515Z,0
2019-05-18T06:23:16.087Z,0
2019-05-18T06:24:16.658Z,0
2019-05-18T06:25:17.227Z,0
2019-05-18T06:26:17.799Z,0
2019-05-18T06:27:18.370Z,0
2019-05-18T06:28:18.936Z,0
2019-05-18T06:29:19.507Z,0
2019-05-18T06:30:20.078Z,0
2019-05-18T06:31:23.057Z,0
2019-05-18T06:32:21.261Z,0
2019-05-18T06:33:21.828Z,0
2019-05-18T06:34:22.396Z,0
2019-05-18T06:35:22.976Z,0
2019-05-18T06:36:23.579Z,0
2019-05-18T06:37:24.165Z,0
2019-05-18T06:38:24.762Z,0
2019-05-18T06:39:25.339Z,0
2019-05-18T06:40:25.945Z,0
2019-05-18T06:41:26.542Z,0
2019-05-18T06:42:27.141Z,0
2019-05-18T06:43:27.710Z,0
2019-05-18T06:44:28.319Z,0
2019-05-18T06:45:28.894Z,0
2019-05-18T06:46:29.501Z,0
2019-05-18T06:47:30.093Z,0
2019-05-18T06:48:30.684Z,0
2019-05-18T06:49:31.271Z,0
2019-05-18T06:50:31.880Z,0
2019-05-18T06:51:32.481Z,0
2019-05-18T06:52:33.088Z,0
2019-05-18T06:53:33.662Z,0
2019-05-18T06:54:34.290Z,0
2019-05-18T06:55:34.889Z,0
2019-05-18T06:56:35.460Z,0
2019-05-18T06:57:36.050Z,0
2019-05-18T06:58:36.643Z,0
2019-05-18T06:59:37.252Z,0
2019-05-18T07:00:37.836Z,0
2019-05-18T07:01:38.459Z,0
2019-05-18T07:02:39.052Z,0
2019-05-18T07:03:39.664Z,0
2019-05-18T07:04:40.241Z,0
2019-05-18T07:05:40.849Z,0
2019-05-18T07:06:41.461Z,0
2019-05-18T07:07:42.033Z,0
2019-05-18T07:08:42.645Z,0
2019-05-18T07:09:43.218Z,0
2019-05-18T07:10:44.028Z,0
2019-05-18T07:11:44.598Z,0
2019-05-18T07:12:45.218Z,0
2019-05-18T07:13:45.795Z,0
2019-05-18T07:14:46.403Z,0
2019-05-18T07:17:02.433Z,0
2019-05-18T07:18:03.019Z,0
2019-05-18T07:19:03.622Z,0
2019-05-18T07:20:04.188Z,0
2019-05-18T07:21:04.798Z,0
2019-05-18T07:22:05.409Z,0
2019-05-18T07:25:37.064Z,0
2019-05-18T07:26:37.677Z,0
2019-05-18T07:28:53.666Z,0
2019-05-18T07:29:54.276Z,0
2019-05-18T07:30:55.047Z,0
2019-05-18T07:31:55.822Z,0
2019-05-18T07:32:56.637Z,0
2019-05-18T07:33:57.252Z,0
2019-05-18T07:34:57.863Z,0
2019-05-18T07:35:58.674Z,0
2019-05-18T07:36:59.456Z,0
2019-05-18T07:37:59.972Z,0
2019-05-18T07:39:00.580Z,0
2019-05-18T07:40:01.110Z,0
2019-05-18T07:41:01.718Z,0
2019-05-18T07:42:02.335Z,0
2019-05-18T07:43:02.898Z,0
2019-05-18T07:44:03.513Z,0
2019-05-18T07:45:04.121Z,0
2019-05-18T07:46:04.896Z,0
2019-05-18T07:47:05.665Z,0
2019-05-18T07:48:06.242Z,0
2019-05-18T07:49:06.851Z,0
2019-05-18T07:50:07.416Z,0
2019-05-18T07:52:23.405Z,0
2019-05-18T07:53:24.018Z,0
2019-05-18T07:54:24.589Z,0
2019-05-18T07:56:40.578Z,0
2019-05-18T07:57:41.192Z,0
2019-05-18T07:58:41.760Z,0
2019-05-18T07:59:42.329Z,0
2019-05-18T08:01:58.319Z,0
2019-05-18T08:04:14.352Z,0
2019-05-18T08:05:14.969Z,0
2019-05-18T08:06:15.582Z,0
2019-05-18T08:07:16.194Z,0
2019-05-18T08:09:32.183Z,0
2019-05-18T08:10:32.754Z,0
2019-05-18T08:12:48.964Z,0
2019-05-18T08:13:49.517Z,0
2019-05-18T08:15:52.864Z,0
2019-05-18T08:16:53.459Z,0
2019-05-18T08:17:54.009Z,0
2019-05-18T08:18:58.017Z,0
2019-05-18T08:19:56.143Z,0
2019-05-18T08:20:56.711Z,0
2019-05-18T08:21:57.285Z,0
2019-05-18T08:22:57.854Z,0
2019-05-18T08:23:58.422Z,0
2019-05-18T08:24:58.993Z,0
2019-05-18T08:25:59.614Z,0
2019-05-18T08:27:02.245Z,0
2019-05-18T08:28:01.748Z,0
2019-05-18T08:30:18.352Z,0
2019-05-18T08:31:18.924Z,0
2019-05-18T08:32:19.495Z,0
2019-05-18T08:33:20.067Z,0
2019-05-18T08:34:20.638Z,0
2019-05-18T08:35:21.212Z,0
2019-05-18T08:36:21.781Z,0
2019-05-18T08:37:22.351Z,0
2019-05-18T08:38:22.925Z,0
2019-05-18T08:39:23.495Z,0
2019-05-18T08:40:24.066Z,0
2019-05-18T08:41:24.637Z,0
2019-05-18T08:42:25.211Z,0
2019-05-18T08:43:25.819Z,0
2019-05-18T08:44:26.394Z,0
2019-05-18T08:45:27.002Z,0
2019-05-18T08:46:27.573Z,0
2019-05-18T08:47:28.142Z,0
2019-05-18T08:48:28.713Z,0
2019-05-18T08:49:29.284Z,0
2019-05-18T08:50:29.854Z,0
2019-05-18T08:51:30.425Z,0
2019-05-18T08:52:30.995Z,0
2019-05-18T08:53:31.568Z,0
2019-05-18T08:54:32.140Z,0
2019-05-18T08:55:32.711Z,0
2019-05-18T08:56:33.281Z,0
2019-05-18T08:57:33.854Z,0
2019-05-18T08:58:34.425Z,0
2019-05-18T08:59:35.000Z,0
2019-05-18T09:00:35.610Z,0
2019-05-18T09:01:36.179Z,0
2019-05-18T09:02:36.761Z,0
2019-05-18T09:03:37.367Z,0
2019-05-18T09:04:37.936Z,0
2019-05-18T09:05:38.509Z,0
2019-05-18T09:06:39.086Z,0
2019-05-18T09:07:39.701Z,0
2019-05-18T09:08:40.307Z,0
2019-05-18T09:09:40.879Z,0
2019-05-18T09:10:41.455Z,0
2019-05-18T09:11:42.026Z,0
2019-05-18T09:12:42.592Z,0
2019-05-18T09:13:43.162Z,0
2019-05-18T09:14:43.736Z,0
2019-05-18T09:15:44.346Z,0
2019-05-18T09:16:44.916Z,0
2019-05-18T09:17:45.486Z,0
2019-05-18T09:18:46.094Z,0
2019-05-18T09:19:46.687Z,0
2019-05-18T09:20:47.302Z,0
2019-05-18T09:21:47.828Z,0
2019-05-18T09:22:48.401Z,0
2019-05-18T09:23:49.015Z,0
2019-05-18T09:24:49.600Z,0
2019-05-18T09:25:50.176Z,0
2019-05-18T09:26:50.746Z,0
2019-05-18T09:27:51.323Z,0
2019-05-18T09:28:51.891Z,0
2019-05-18T09:29:52.466Z,0
2019-05-18T09:30:53.037Z,0
2019-05-18T09:31:53.648Z,0
2019-05-18T09:32:54.223Z,0
2019-05-18T09:33:54.790Z,0
2019-05-18T09:34:55.361Z,0
2019-05-18T09:35:55.934Z,0
2019-05-18T09:36:56.538Z,0
2019-05-18T09:37:57.119Z,0
2019-05-18T09:38:57.770Z,0
2019-05-18T09:39:58.338Z,0
2019-05-18T09:40:58.910Z,0
2019-05-18T09:41:59.479Z,0
2019-05-18T09:43:00.052Z,0
2019-05-18T09:44:00.627Z,0
2019-05-18T09:45:01.238Z,0
2019-05-18T09:46:01.807Z,0
2019-05-18T09:47:02.379Z,0
2019-05-18T09:48:03.041Z,0
2019-05-18T09:49:03.600Z,0
2019-05-18T09:50:04.213Z,0
2019-05-18T09:51:04.788Z,75
2019-05-18T09:52:05.363Z,130
2019-05-18T09:53:06.303Z,130
2019-05-18T09:54:06.803Z,125
2019-05-18T09:55:07.379Z,140
2019-05-18T09:56:07.958Z,150
2019-05-18T09:57:08.580Z,155
2019-05-18T09:58:09.253Z,150
2019-05-18T09:59:09.922Z,145
2019-05-18T10:00:10.502Z,150
2019-05-18T10:01:11.080Z,125
2019-05-18T10:02:11.653Z,125
2019-05-18T10:03:12.257Z,115
2019-05-18T10:04:12.806Z,100
2019-05-18T10:05:13.381Z,80
2019-05-18T10:10:02.259Z,85
2019-05-18T10:13:33.936Z,85
2019-05-18T10:14:34.549Z,85
2019-05-18T10:16:50.768Z,85
2019-05-18T10:23:04.176Z,85
2019-05-18T10:23:53.377Z,90
2019-05-18T10:24:53.954Z,90
2019-05-18T10:25:54.529Z,90
2019-05-18T10:26:55.105Z,90
2019-05-18T10:27:55.692Z,90
2019-05-18T10:28:56.313Z,90
2019-05-18T10:29:57.528Z,90
2019-05-18T10:30:58.114Z,90
2019-05-18T10:31:58.684Z,90
2019-05-18T10:32:59.259Z,90
2019-05-18T10:33:59.832Z,95
2019-05-18T10:35:00.410Z,95
2019-05-18T10:38:31.842Z,95
2019-05-18T10:39:32.417Z,100
2019-05-18T10:40:33.000Z,100
2019-05-18T10:41:33.570Z,100
2019-05-18T10:42:34.146Z,100
2019-05-18T10:43:34.724Z,100
2019-05-18T10:44:35.300Z,105
2019-05-18T10:45:35.882Z,105
2019-05-18T10:46:36.459Z,105
2019-05-18T10:47:37.106Z,105
2019-05-18T10:48:37.646Z,105
2019-05-18T10:49:38.218Z,105
2019-05-18T10:50:38.799Z,110
2019-05-18T10:51:39.376Z,110
2019-05-18T10:53:55.581Z,115
2019-05-18T10:54:56.159Z,115
2019-05-18T10:55:56.743Z,120
2019-05-18T10:56:57.326Z,135
2019-05-18T10:57:57.897Z,140
2019-05-18T11:01:29.938Z,255
2019-05-18T11:27:37.159Z,280
2019-05-18T11:44:55.551Z,255
2019-05-18T11:46:23.021Z,190
2019-05-18T11:52:32.071Z,150
2019-05-18T12:14:03.958Z,290
2019-05-18T12:15:04.537Z,290
2019-05-18T12:16:05.117Z,275
2019-05-18T12:18:21.536Z,280
2019-05-18T12:20:37.756Z,290
2019-05-18T12:24:20.028Z,295
2019-05-18T12:25:20.614Z,295
2019-05-18T12:26:21.240Z,295
2019-05-18T12:27:21.826Z,300
2019-05-18T12:28:22.417Z,300
2019-05-18T12:29:22.998Z,300
2019-05-18T12:30:23.582Z,300
2019-05-18T12:31:24.166Z,300
2019-05-18T12:32:24.752Z,305
2019-05-18T12:33:25.339Z,305
2019-05-18T12:34:25.926Z,305
2019-05-18T12:35:26.513Z,310
2019-05-18T12:36:27.099Z,310
2019-05-18T12:37:27.684Z,315
2019-05-18T12:38:28.268Z,320
2019-05-18T12:39:28.853Z,335
2019-05-18T12:40:29.439Z,330
2019-05-18T12:41:30.027Z,340
2019-05-18T12:42:30.667Z,350
2019-05-18T12:43:31.288Z,355
2019-05-18T12:44:31.872Z,380
2019-05-18T12:45:32.486Z,395
2019-05-18T12:46:33.107Z,420
2019-05-18T12:47:33.731Z,435
2019-05-18T12:48:34.335Z,450
2019-05-18T12:49:34.942Z,475
2019-05-18T12:50:35.529Z,510
2019-05-18T12:51:36.119Z,535
2019-05-18T12:52:36.705Z,525
2019-05-18T12:53:37.304Z,540
2019-05-18T12:54:46.085Z,625
2019-05-18T12:55:39.460Z,700
2019-05-18T12:56:40.111Z,725
2019-05-18T12:57:40.725Z,760
2019-05-18T12:58:41.358Z,735
2019-05-18T12:59:42.352Z,750
2019-05-18T13:02:47.447Z,880
2019-05-18T13:03:48.034Z,945
2019-05-18T13:04:48.623Z,1025
2019-05-18T13:05:49.210Z,990
2019-05-18T13:06:49.798Z,975
2019-05-18T13:07:50.386Z,1095
2019-05-18T13:09:52.561Z,1130
2019-05-18T13:10:53.152Z,1040
2019-05-18T13:11:53.738Z,1110
2019-05-18T13:12:54.327Z,1235
2019-05-18T13:13:54.915Z,1310
2019-05-18T13:14:55.504Z,1355
2019-05-18T13:15:56.092Z,1365
2019-05-18T13:16:56.681Z,1290
2019-05-18T13:17:57.270Z,1205
2019-05-18T13:18:57.857Z,1260
2019-05-18T13:19:58.451Z,1295
2019-05-18T13:20:59.079Z,1305
2019-05-18T13:21:59.669Z,1355
2019-05-18T13:23:00.265Z,1320
2019-05-18T13:24:00.908Z,1310
2019-05-18T13:25:01.533Z,1280
2019-05-18T13:26:02.155Z,1255
2019-05-18T13:27:02.750Z,1240
2019-05-18T13:28:03.401Z,1205
2019-05-18T13:29:03.950Z,1115
2019-05-18T13:30:04.563Z,1095
2019-05-18T13:31:05.178Z,1170
2019-05-18T13:32:05.768Z,1205
2019-05-18T13:33:06.363Z,1190
2019-05-18T13:34:06.947Z,1105
2019-05-18T13:35:07.538Z,1025
2019-05-18T13:36:08.126Z,1140
2019-05-18T13:37:08.716Z,1150
2019-05-18T13:38:09.305Z,1120
2019-05-18T13:39:09.893Z,1145
2019-05-18T13:40:10.483Z,1175
2019-05-18T13:41:11.073Z,1185
2019-05-18T13:42:11.704Z,1155
2019-05-18T13:43:12.290Z,1160
2019-05-18T13:44:12.876Z,1120
2019-05-18T13:45:13.464Z,1130
2019-05-18T13:46:14.062Z,1125
2019-05-18T13:47:14.638Z,1120
2019-05-18T13:48:15.225Z,1070
2019-05-18T13:54:44.374Z,1185
2019-05-18T13:58:58.647Z,1100
2019-05-18T13:59:59.269Z,1095
2019-05-18T14:00:59.896Z,1120
2019-05-18T14:02:00.524Z,1145
2019-05-18T14:03:01.123Z,1125
2019-05-18T14:04:01.753Z,1070
2019-05-18T14:05:02.335Z,1045
2019-05-18T14:06:02.923Z,1045
2019-05-18T14:07:03.510Z,1050
2019-05-18T14:08:04.099Z,970
2019-05-18T14:09:04.703Z,930
2019-05-18T14:10:05.347Z,995
2019-05-18T14:11:05.957Z,1025
2019-05-18T14:13:22.029Z,1010
2019-05-18T14:14:22.643Z,1005
2019-05-18T14:15:23.386Z,995
2019-05-18T14:16:23.955Z,990
2019-05-18T14:17:24.572Z,935
2019-05-18T14:18:25.164Z,910
2019-05-18T14:19:25.803Z,885
2019-05-18T14:20:26.673Z,620
2019-05-18T14:21:27.224Z,330
2019-05-18T14:22:27.810Z,255
2019-05-18T14:23:28.396Z,255
2019-05-18T14:24:29.030Z,280
2019-05-18T14:25:29.577Z,240
2019-05-18T14:26:30.163Z,240
2019-05-18T14:27:30.750Z,245
2019-05-18T14:28:31.336Z,250
2019-05-18T14:29:31.923Z,260
2019-05-18T14:30:32.552Z,255
2019-05-18T14:31:33.143Z,280
2019-05-18T14:32:33.724Z,440
2019-05-18T14:33:34.313Z,685
2019-05-18T14:34:34.947Z,855
2019-05-18T14:35:35.536Z,830
2019-05-18T14:36:36.123Z,850
2019-05-18T14:37:36.711Z,865
2019-05-18T14:38:37.297Z,840
2019-05-18T14:39:37.884Z,835
2019-05-18T14:40:38.474Z,850
2019-05-18T14:41:42.335Z,840
2019-05-18T14:42:40.637Z,845
2019-05-18T14:43:41.222Z,830
2019-05-18T14:44:41.810Z,800
2019-05-18T14:45:42.404Z,800
2019-05-18T14:46:43.026Z,770
2019-05-18T14:47:43.615Z,755
2019-05-18T14:48:44.244Z,735
2019-05-18T14:49:44.828Z,730
2019-05-18T14:50:45.417Z,770
2019-05-18T14:51:46.002Z,715
2019-05-18T14:52:46.589Z,680
2019-05-18T14:53:47.213Z,715
2019-05-18T14:54:47.799Z,680
2019-05-18T14:55:48.384Z,630
2019-05-18T14:56:48.967Z,560
2019-05-18T14:57:49.552Z,550
2019-05-18T14:58:50.137Z,495
2019-05-18T14:59:50.724Z,410
2019-05-18T15:00:51.314Z,330
2019-05-18T15:01:51.896Z,295
2019-05-18T15:02:52.480Z,240
2019-05-18T15:03:53.067Z,210
2019-05-18T15:04:56.849Z,200
2019-05-18T15:05:55.231Z,190
2019-05-18T15:06:55.814Z,205
2019-05-18T15:07:56.403Z,205
2019-05-18T15:08:56.983Z,225
2019-05-18T15:09:58.563Z,155
2019-05-18T15:10:59.145Z,240
2019-05-18T15:11:59.727Z,200
2019-05-18T15:13:00.310Z,190
2019-05-18T15:14:00.894Z,180
2019-05-18T15:15:01.515Z,170
2019-05-18T15:16:02.075Z,170
2019-05-18T15:17:02.701Z,170
2019-05-18T15:18:03.323Z,170
2019-05-18T15:19:03.907Z,160
2019-05-18T15:20:04.541Z,165
2019-05-18T15:21:05.122Z,155
2019-05-18T15:22:05.711Z,155
2019-05-18T15:23:06.285Z,150
2019-05-18T15:24:08.758Z,150
2019-05-18T15:25:07.493Z,160
2019-05-18T15:26:08.122Z,160
2019-05-18T15:27:08.747Z,160
2019-05-18T15:28:09.328Z,150
2019-05-18T15:29:09.958Z,165
2019-05-18T15:30:10.540Z,165
2019-05-18T15:31:11.124Z,150
2019-05-18T15:32:11.706Z,155
2019-05-18T15:33:12.334Z,160
2019-05-18T15:34:12.915Z,155
2019-05-18T15:35:13.496Z,145
2019-05-18T15:36:14.083Z,145
2019-05-18T15:37:14.712Z,140
2019-05-18T15:38:15.291Z,145
2019-05-18T15:39:15.877Z,145
2019-05-18T15:40:16.500Z,150
2019-05-18T15:41:17.078Z,130
2019-05-18T15:42:17.659Z,145
2019-05-18T15:44:33.918Z,145
2019-05-18T15:45:34.503Z,145
2019-05-18T15:46:35.081Z,140
2019-05-18T15:47:35.668Z,140
2019-05-18T15:48:36.278Z,145
2019-05-18T15:49:36.875Z,145
2019-05-18T15:50:37.453Z,145
2019-05-18T15:51:38.037Z,140
2019-05-18T15:52:38.617Z,145
2019-05-18T15:56:20.797Z,130
2019-05-18T15:57:21.414Z,140
2019-05-18T15:58:22.015Z,145
2019-05-18T15:59:22.595Z,140
2019-05-18T16:00:23.181Z,140
2019-05-18T16:01:23.761Z,135
2019-05-18T16:02:24.388Z,130
2019-05-18T16:03:24.968Z,130
2019-05-18T16:04:25.554Z,130
2019-05-18T16:05:26.176Z,130
2019-05-18T16:06:26.757Z,130
2019-05-18T16:07:27.342Z,125
2019-05-18T16:08:27.963Z,120
2019-05-18T16:09:28.565Z,125
2019-05-18T16:10:29.167Z,125
2019-05-18T16:11:29.747Z,120
2019-05-18T16:12:30.330Z,120
2019-05-18T16:13:30.911Z,110
2019-05-18T16:14:31.494Z,115
2019-05-18T16:15:32.077Z,120
2019-05-18T16:16:32.656Z,120
2019-05-18T16:17:39.417Z,120
2019-05-18T16:18:34.810Z,110
2019-05-18T16:19:35.397Z,115
2019-05-18T16:21:37.551Z,105
2019-05-18T16:22:38.133Z,105
2019-05-18T16:23:38.710Z,100
2019-05-18T16:24:39.329Z,100
2019-05-18T16:25:39.877Z,105
2019-05-18T16:26:40.456Z,110
2019-05-18T16:27:41.036Z,110
2019-05-18T16:28:41.619Z,110
2019-05-18T16:29:42.198Z,105
2019-05-18T16:30:42.794Z,105
2019-05-18T16:31:43.358Z,100
2019-05-18T16:32:44.146Z,95
2019-05-18T16:33:44.723Z,95
2019-05-18T16:34:45.299Z,95
2019-05-18T16:35:45.882Z,100
2019-05-18T16:36:46.523Z,100
2019-05-18T16:37:47.090Z,100
2019-05-18T16:38:47.670Z,100